Time;durP1;ratioP1;P1;durP2;ratioP2;P2;SDS_P1;SDS_P2;PMS_P1;PMS_P2;Temp;Humidity;BMP_temperature;BMP_pressure;BME280_temperature;BME280_humidity;BME280_pressure;Samples;Min_cycle;Max_cycle;Signal;HPM_P1;HPM_P2
2023/11/04 00:02:20;;;;;;;53.33;25.43;;;8.60;59.90;;;;;;5077213;28;20187;-77
2023/11/04 00:04:46;;;;;;;56.03;32.90;;;8.50;62.20;;;;;;5058895;28;20598;-76
2023/11/04 00:07:11;;;;;;;56.47;32.93;;;8.40;61.50;;;;;;5077117;28;20490;-76
2023/11/04 00:09:37;;;;;;;56.77;30.80;;;8.50;63.90;;;;;;5076790;28;20160;-76
2023/11/04 00:12:03;;;;;;;55.30;30.37;;;8.50;64.10;;;;;;5076784;28;20533;-76
2023/11/04 00:14:29;;;;;;;55.10;30.98;;;8.40;61.70;;;;;;5076904;28;20472;-76
2023/11/04 00:16:55;;;;;;;55.97;32.93;;;8.40;64.50;;;;;;5076683;28;20168;-76
2023/11/04 00:19:20;;;;;;;54.87;28.97;;;8.50;68.00;;;;;;5076933;28;20160;-77
2023/11/04 00:21:46;;;;;;;54.77;27.03;;;8.40;71.20;;;;;;5076798;28;20184;-76
2023/11/04 00:24:12;;;;;;;55.53;27.67;;;8.30;70.50;;;;;;5076491;28;20180;-77
2023/11/04 00:26:38;;;;;;;56.33;31.65;;;8.30;72.20;;;;;;5076647;28;20635;-76
2023/11/04 00:29:05;;;;;;;56.63;31.17;;;8.40;75.10;;;;;;5076442;28;20160;-76
2023/11/04 00:31:33;;;;;;;55.95;29.42;;;8.40;69.90;;;;;;5058478;28;20523;-77
2023/11/04 00:34:02;;;;;;;60.20;30.88;;;8.40;67.30;;;;;;5076275;28;20176;-77
2023/11/04 00:36:29;;;;;;;54.92;28.10;;;8.40;68.80;;;;;;5076307;28;20282;-77
2023/11/04 00:38:54;;;;;;;56.13;28.17;;;8.40;65.60;;;;;;5076231;28;20630;-77
2023/11/04 00:41:20;;;;;;;55.23;28.17;;;8.40;66.40;;;;;;5076112;28;20192;-77
2023/11/04 00:43:46;;;;;;;56.53;33.57;;;8.30;67.80;;;;;;5076101;28;20191;-76
2023/11/04 00:46:12;;;;;;;55.87;32.43;;;8.40;69.80;;;;;;5076430;28;20629;-76
2023/11/04 00:48:38;;;;;;;53.33;24.90;;;8.40;61.00;;;;;;5076109;28;20951;-76
2023/11/04 00:51:04;;;;;;;60.70;37.58;;;8.40;60.80;;;;;;5076603;28;20892;-76
2023/11/04 00:53:33;;;;;;;54.13;27.90;;;8.40;60.20;;;;;;5075926;28;20267;-76
2023/11/04 00:55:58;;;;;;;55.92;30.38;;;8.30;60.10;;;;;;5075964;28;20629;-76
2023/11/04 00:58:24;;;;;;;56.00;33.70;;;8.30;62.40;;;;;;5076263;28;20188;-76
2023/11/04 01:00:50;;;;;;;54.37;29.37;;;8.30;63.00;;;;;;5075864;28;20195;-76
2023/11/04 01:03:16;;;;;;;54.60;27.10;;;8.30;65.80;;;;;;5075797;28;20234;-76
2023/11/04 01:05:42;;;;;;;54.33;27.50;;;8.30;66.10;;;;;;5075886;28;20839;-76
2023/11/04 01:08:08;;;;;;;56.50;30.87;;;8.20;73.60;;;;;;5075520;28;20252;-76
2023/11/04 01:10:34;;;;;;;56.90;33.03;;;8.20;73.80;;;;;;5057815;28;20199;-76
2023/11/04 01:13:00;;;;;;;54.97;29.10;;;8.20;73.70;;;;;;5075991;28;20177;-76
2023/11/04 01:15:29;;;;;;;55.67;31.27;;;8.20;74.40;;;;;;5076210;28;20210;-76
2023/11/04 01:17:54;;;;;;;55.50;29.90;;;8.10;75.90;;;;;;5075835;28;20537;-76
2023/11/04 01:20:20;;;;;;;55.90;31.83;;;8.20;77.80;;;;;;5075758;28;20187;-76
2023/11/04 01:22:46;;;;;;;57.23;31.10;;;8.10;83.70;;;;;;5075446;28;20677;-77
2023/11/04 01:25:11;;;;;;;55.97;30.93;;;8.10;79.00;;;;;;5075727;28;20172;-76
2023/11/04 01:27:37;;;;;;;56.43;33.03;;;8.10;82.40;;;;;;5075650;28;20509;-76
2023/11/04 01:30:03;;;;;;;56.03;31.27;;;8.10;81.70;;;;;;5075498;28;20167;-76
2023/11/04 01:32:28;;;;;;;55.87;28.13;;;8.10;80.50;;;;;;5075488;28;20580;-77
2023/11/04 01:34:54;;;;;;;56.37;30.53;;;8.10;81.40;;;;;;5075561;28;20734;-76
2023/11/04 01:37:25;;;;;;;55.20;29.83;;;8.00;76.20;;;;;;5075807;28;20649;-76
2023/11/04 01:39:51;;;;;;;55.22;30.60;;;8.10;77.60;;;;;;5057278;28;20525;-77
2023/11/04 01:42:17;;;;;;;60.17;29.25;;;8.10;73.50;;;;;;5075319;28;20192;-76
2023/11/04 01:44:42;;;;;;;54.63;30.30;;;8.10;73.10;;;;;;5075034;28;20200;-76
2023/11/04 01:47:09;;;;;;;55.60;30.57;;;8.10;68.10;;;;;;5075033;28;20157;-76
2023/11/04 01:49:35;;;;;;;55.28;30.95;;;8.00;72.00;;;;;;5075231;28;20175;-77
2023/11/04 01:52:02;;;;;;;53.47;27.07;;;8.10;70.00;;;;;;5074977;28;20160;-77
2023/11/04 01:54:28;;;;;;;53.72;26.52;;;8.10;64.50;;;;;;5074844;28;20419;-77
2023/11/04 01:56:54;;;;;;;58.72;32.33;;;8.10;61.60;;;;;;5075026;28;20195;-77
2023/11/04 01:59:21;;;;;;;56.55;28.52;;;8.00;64.90;;;;;;5074638;28;20181;-76
2023/11/04 02:01:48;;;;;;;54.58;27.30;;;8.00;68.40;;;;;;5075236;28;20196;-76
2023/11/04 02:04:13;;;;;;;53.72;25.40;;;8.00;70.50;;;;;;5074681;28;20180;-76
2023/11/04 02:06:39;;;;;;;56.70;29.90;;;8.00;71.30;;;;;;5074873;28;20652;-77
2023/11/04 02:09:06;;;;;;;55.05;27.65;;;8.00;74.80;;;;;;5056703;28;20210;-77
2023/11/04 02:11:32;;;;;;;56.50;30.60;;;8.00;78.50;;;;;;5074567;28;20161;-76
2023/11/04 02:13:58;;;;;;;56.33;32.72;;;8.00;80.00;;;;;;5074447;28;20196;-76
2023/11/04 02:16:23;;;;;;;59.73;38.47;;;8.00;80.50;;;;;;5074452;28;20226;-77
2023/11/04 02:18:49;;;;;;;56.63;32.20;;;8.00;80.90;;;;;;5074981;28;20175;-76
2023/11/04 02:21:15;;;;;;;56.00;33.60;;;8.00;81.30;;;;;;5073373;28;20184;-76
2023/11/04 02:23:41;;;;;;;68.22;49.75;;;8.00;78.50;;;;;;5074167;28;20188;-76
2023/11/04 02:26:07;;;;;;;58.63;37.33;;;8.00;82.60;;;;;;5074160;28;20172;-76
2023/11/04 02:28:33;;;;;;;56.77;31.97;;;8.10;87.50;;;;;;5074224;28;20631;-76
2023/11/04 02:31:00;;;;;;;59.10;38.93;;;8.20;87.10;;;;;;5074186;28;20165;-76
2023/11/04 02:33:26;;;;;;;59.25;36.78;;;8.10;83.40;;;;;;5074022;28;20187;-76
2023/11/04 02:35:51;;;;;;;57.90;37.47;;;8.20;85.00;;;;;;5074621;28;20168;-76
2023/11/04 02:38:18;;;;;;;66.73;45.17;;;8.20;84.10;;;;;;5139127;22;20265;-76
2023/11/04 02:40:44;;;;;;;59.67;36.92;;;8.10;87.30;;;;;;5074379;28;20687;-77
2023/11/04 02:43:10;;;;;;;60.85;41.03;;;8.10;88.80;;;;;;5056079;28;20195;-76
2023/11/04 02:45:36;;;;;;;59.97;37.83;;;8.00;90.50;;;;;;5074152;28;20168;-76
2023/11/04 02:48:02;;;;;;;65.68;47.85;;;8.10;92.60;;;;;;5056802;28;20541;-76
2023/11/04 02:50:28;;;;;;;58.35;37.22;;;8.10;94.10;;;;;;5073777;28;20241;-77
2023/11/04 02:52:54;;;;;;;58.13;36.40;;;8.10;95.30;;;;;;5073721;28;20184;-76
2023/11/04 02:55:20;;;;;;;57.87;34.93;;;8.10;96.50;;;;;;5073707;28;20505;-76
2023/11/04 02:57:47;;;;;;;61.50;40.90;;;8.10;96.90;;;;;;5073654;28;20187;-76
2023/11/04 03:00:14;;;;;;;61.30;42.17;;;8.20;96.00;;;;;;5073533;28;20192;-76
2023/11/04 03:02:41;;;;;;;70.22;51.22;;;8.20;96.80;;;;;;5073842;28;20165;-76
2023/11/04 03:05:06;;;;;;;58.10;32.40;;;8.20;97.80;;;;;;5073560;28;20194;-77
2023/11/04 03:07:32;;;;;;;58.20;31.83;;;8.30;96.60;;;;;;5073687;28;20168;-76
2023/11/04 03:09:58;;;;;;;60.73;42.93;;;8.30;97.20;;;;;;5073463;28;20474;-77
2023/11/04 03:12:24;;;;;;;58.43;36.13;;;8.30;97.40;;;;;;5073623;28;20168;-76
2023/11/04 03:14:49;;;;;;;59.77;35.10;;;8.30;96.90;;;;;;5073388;28;20841;-76
2023/11/04 03:17:16;;;;;;;59.50;36.33;;;8.30;98.00;;;;;;5073357;28;20409;-76
2023/11/04 03:19:45;;;;;;;61.28;37.55;;;8.20;99.90;;;;;;5073359;28;20192;-77
2023/11/04 03:22:11;;;;;;;60.53;36.35;;;8.30;99.90;;;;;;5073244;28;20184;-76
2023/11/04 03:24:41;;;;;;;61.72;39.30;;;8.30;99.90;;;;;;5073353;28;20709;-77
2023/11/04 03:27:07;;;;;;;61.83;40.92;;;8.40;99.90;;;;;;5073249;28;20267;-76
2023/11/04 03:29:32;;;;;;;64.83;50.77;;;8.30;99.90;;;;;;5073265;28;20216;-76
2023/11/04 03:31:58;;;;;;;64.07;45.97;;;8.40;99.90;;;;;;5073284;28;20171;-76
2023/11/04 03:34:24;;;;;;;64.83;48.87;;;8.40;99.90;;;;;;5073181;28;20199;-76
2023/11/04 03:36:51;;;;;;;65.00;54.17;;;8.40;99.90;;;;;;5073691;28;20250;-77
2023/11/04 03:39:16;;;;;;;67.53;57.58;;;8.40;99.90;;;;;;5073124;28;20183;-76
2023/11/04 03:41:42;;;;;;;65.90;50.80;;;8.40;99.90;;;;;;5073303;28;20182;-76
2023/11/04 03:44:08;;;;;;;65.33;52.37;;;8.50;99.90;;;;;;5073079;28;20267;-77
2023/11/04 03:46:33;;;;;;;66.07;55.33;;;8.50;99.90;;;;;;5073271;28;20188;-76
2023/11/04 03:49:00;;;;;;;64.80;50.73;;;8.50;99.90;;;;;;5073292;28;20192;-76
2023/11/04 03:51:26;;;;;;;69.90;52.47;;;8.50;99.90;;;;;;5073232;28;20529;-76
2023/11/04 03:53:52;;;;;;;64.47;47.20;;;8.50;99.90;;;;;;5073177;28;20262;-77
2023/11/04 03:56:17;;;;;;;69.20;60.55;;;8.50;99.90;;;;;;5073171;28;20171;-76
2023/11/04 03:58:43;;;;;;;67.03;52.27;;;8.50;99.90;;;;;;5073182;28;20172;-76
2023/11/04 04:01:09;;;;;;;64.33;48.37;;;8.50;99.90;;;;;;5072829;28;20185;-76
2023/11/04 04:03:35;;;;;;;65.63;52.77;;;8.50;99.90;;;;;;5072967;28;20184;-76
2023/11/04 04:06:01;;;;;;;64.70;48.63;;;8.40;99.90;;;;;;5072815;28;20773;-76
2023/11/04 04:08:26;;;;;;;63.80;45.30;;;8.40;99.90;;;;;;5072814;28;20187;-76
2023/11/04 04:10:52;;;;;;;67.50;51.73;;;8.40;99.90;;;;;;5072816;28;20763;-76
2023/11/04 04:13:18;;;;;;;66.22;50.63;;;8.40;99.90;;;;;;5072691;28;20514;-76
2023/11/04 04:15:44;;;;;;;63.27;45.13;;;8.40;99.90;;;;;;5072792;28;20255;-76
2023/11/04 04:18:10;;;;;;;63.83;46.13;;;8.40;99.90;;;;;;5072920;28;20202;-76
2023/11/04 04:20:36;;;;;;;64.88;47.28;;;8.30;99.90;;;;;;5072920;28;20184;-76
2023/11/04 04:23:01;;;;;;;66.83;53.63;;;8.30;99.90;;;;;;5072870;28;20680;-76
2023/11/04 04:25:27;;;;;;;65.33;48.20;;;8.20;99.90;;;;;;5072634;28;20503;-76
2023/11/04 04:27:52;;;;;;;66.10;52.53;;;8.20;99.90;;;;;;5072652;28;20172;-76
2023/11/04 04:30:18;;;;;;;67.17;53.53;;;8.20;99.90;;;;;;5072926;28;20556;-76
2023/11/04 04:32:47;;;;;;;67.60;53.73;;;8.20;99.90;;;;;;5072536;28;20680;-76
2023/11/04 04:35:13;;;;;;;67.85;51.65;;;8.20;99.90;;;;;;5072834;28;20175;-76
2023/11/04 04:37:38;;;;;;;68.10;59.00;;;8.20;99.90;;;;;;5072817;28;20160;-76
2023/11/04 04:40:05;;;;;;;75.60;66.93;;;8.10;99.90;;;;;;5072402;28;20701;-76
2023/11/04 04:42:31;;;;;;;68.05;59.17;;;8.10;99.90;;;;;;5072972;28;20157;-76
2023/11/04 04:44:57;;;;;;;67.90;55.10;;;8.10;99.90;;;;;;5075769;28;20586;-77
2023/11/04 04:47:23;;;;;;;69.97;61.40;;;8.10;99.90;;;;;;5076214;28;20244;-76
2023/11/04 04:49:48;;;;;;;65.77;51.67;;;8.00;99.90;;;;;;5076130;28;20525;-76
2023/11/04 04:52:16;;;;;;;65.43;49.47;;;8.00;99.90;;;;;;5075988;28;20200;-76
2023/11/04 04:54:41;;;;;;;77.22;68.57;;;8.00;99.90;;;;;;5057987;28;20188;-76
2023/11/04 04:57:07;;;;;;;84.33;75.67;;;8.00;99.90;;;;;;5075951;28;20175;-77
2023/11/04 04:59:33;;;;;;;86.40;77.53;;;8.00;99.90;;;;;;5076230;28;20184;-76
2023/11/04 05:02:02;;;;;;;67.13;50.03;;;8.00;99.90;;;;;;5075811;28;20235;-76
2023/11/04 05:04:27;;;;;;;69.78;61.00;;;8.00;99.90;;;;;;5075787;28;20267;-76
2023/11/04 05:06:53;;;;;;;68.27;56.67;;;8.00;99.90;;;;;;5076045;28;20260;-76
2023/11/04 05:09:21;;;;;;;68.77;54.97;;;7.90;99.90;;;;;;5076006;28;20580;-77
2023/11/04 05:11:46;;;;;;;76.82;68.80;;;7.90;99.90;;;;;;5075690;28;20168;-77
2023/11/04 05:14:12;;;;;;;79.97;71.93;;;7.90;99.90;;;;;;5075678;28;20535;-76
2023/11/04 05:16:38;;;;;;;76.43;68.50;;;7.90;99.90;;;;;;5076100;28;20425;-76
2023/11/04 05:19:03;;;;;;;69.63;61.37;;;7.90;99.90;;;;;;5075831;28;20293;-77
2023/11/04 05:21:29;;;;;;;76.73;68.80;;;7.90;99.90;;;;;;5075466;28;20267;-77
2023/11/04 05:23:55;;;;;;;71.17;62.90;;;7.90;99.90;;;;;;5075474;28;20188;-76
2023/11/04 05:26:21;;;;;;;74.47;66.67;;;7.90;99.90;;;;;;5075421;28;20164;-76
2023/11/04 05:28:47;;;;;;;75.45;67.57;;;7.90;99.90;;;;;;5056499;28;20518;-76
2023/11/04 05:31:13;;;;;;;81.07;72.93;;;7.80;99.90;;;;;;5075335;28;20161;-76
2023/11/04 05:33:38;;;;;;;86.27;77.47;;;7.90;99.90;;;;;;5075618;28;20189;-76
2023/11/04 05:36:04;;;;;;;87.27;78.77;;;7.80;99.90;;;;;;5075273;28;20168;-76
2023/11/04 05:38:32;;;;;;;83.22;74.90;;;7.90;99.90;;;;;;5075012;28;20180;-76
2023/11/04 05:40:58;;;;;;;88.45;79.47;;;7.80;99.90;;;;;;5075380;28;20185;-76
2023/11/04 05:43:30;;;;;;;72.60;64.47;;;7.80;99.90;;;;;;5075325;28;20238;-76
2023/11/04 05:45:55;;;;;;;82.90;74.70;;;7.90;99.90;;;;;;5075132;28;20569;-76
2023/11/04 05:48:22;;;;;;;103.97;94.70;;;7.90;99.90;;;;;;5075083;28;20191;-76
2023/11/04 05:50:48;;;;;;;99.65;90.18;;;7.90;99.90;;;;;;5074981;28;20173;-76
2023/11/04 05:53:16;;;;;;;87.63;79.03;;;7.90;99.90;;;;;;5075073;28;20199;-76
2023/11/04 05:55:42;;;;;;;86.53;78.10;;;7.90;99.90;;;;;;5074821;28;20214;-76
2023/11/04 05:58:07;;;;;;;82.07;73.90;;;8.00;99.90;;;;;;5056887;28;20299;-76
2023/11/04 06:00:33;;;;;;;91.73;82.70;;;8.00;99.90;;;;;;5074810;28;20995;-76
2023/11/04 06:03:00;;;;;;;81.03;72.88;;;8.00;99.90;;;;;;5074954;28;20561;-76
2023/11/04 06:05:26;;;;;;;104.23;94.40;;;8.00;99.90;;;;;;5074700;28;20161;-76
2023/11/04 06:07:51;;;;;;;83.53;75.33;;;8.00;99.90;;;;;;5074675;28;20222;-76
2023/11/04 06:10:17;;;;;;;85.00;76.37;;;7.90;99.90;;;;;;5074597;28;20160;-76
2023/11/04 06:12:43;;;;;;;89.33;80.73;;;8.00;99.90;;;;;;5074746;28;20192;-76
2023/11/04 06:15:09;;;;;;;108.67;98.93;;;8.00;99.90;;;;;;5074768;28;20243;-76
2023/11/04 06:17:35;;;;;;;101.15;91.65;;;8.10;99.90;;;;;;5074706;28;20626;-76
2023/11/04 06:20:00;;;;;;;88.93;80.37;;;8.10;99.90;;;;;;5074681;28;20175;-77
2023/11/04 06:27:27;;;;;;;110.25;100.65;;;8.20;99.90;;;;;;5052860;28;20205;-77
2023/11/04 06:29:53;;;;;;;89.90;81.43;;;8.30;99.90;;;;;;5054811;28;20491;-76
2023/11/04 06:32:18;;;;;;;105.95;96.32;;;8.30;99.90;;;;;;5054185;28;20168;-77
2023/11/04 06:34:44;;;;;;;102.30;92.83;;;8.40;99.90;;;;;;5054119;28;20189;-77
2023/11/04 06:37:10;;;;;;;89.20;80.40;;;8.40;99.90;;;;;;5054104;28;20176;-76
2023/11/04 06:39:35;;;;;;;88.50;79.93;;;8.50;99.90;;;;;;5054100;28;20212;-76
2023/11/04 06:42:01;;;;;;;94.23;85.57;;;8.50;99.90;;;;;;5054187;28;20201;-76
2023/11/04 06:44:27;;;;;;;91.70;83.17;;;8.50;99.90;;;;;;5053865;28;20566;-76
2023/11/04 06:46:52;;;;;;;90.10;81.43;;;8.60;99.90;;;;;;5054023;28;20543;-76
2023/11/04 06:49:22;;;;;;;81.83;73.57;;;8.60;99.90;;;;;;5054127;28;20546;-76
2023/11/04 06:51:47;;;;;;;94.70;85.85;;;8.70;99.90;;;;;;5054127;28;20700;-76
2023/11/04 06:54:13;;;;;;;75.60;67.53;;;8.70;99.90;;;;;;5053728;28;20267;-76
2023/11/04 06:56:39;;;;;;;84.87;76.47;;;8.70;99.90;;;;;;5054006;28;20200;-76
2023/11/04 06:59:05;;;;;;;99.30;89.78;;;8.70;99.90;;;;;;5053980;28;20162;-77
2023/11/04 07:01:31;;;;;;;82.10;73.83;;;8.70;99.90;;;;;;5053607;28;20201;-76
2023/11/04 07:03:56;;;;;;;100.63;91.37;;;8.70;99.90;;;;;;5053846;28;20272;-76
2023/11/04 07:06:22;;;;;;;96.40;87.60;;;8.80;99.90;;;;;;5053143;28;20169;-76
2023/11/04 07:08:48;;;;;;;111.17;101.47;;;8.80;99.90;;;;;;5053553;28;20165;-76
2023/11/04 07:11:19;;;;;;;121.70;111.37;;;8.90;99.90;;;;;;5053531;28;20577;-76
2023/11/04 07:13:45;;;;;;;99.07;90.13;;;8.90;99.90;;;;;;5053445;28;20181;-76
2023/11/04 07:16:11;;;;;;;125.10;114.65;;;9.00;99.90;;;;;;5053678;28;20244;-77
2023/11/04 07:18:38;;;;;;;101.75;92.85;;;9.10;99.90;;;;;;5053382;28;20658;-76
2023/11/04 07:21:05;;;;;;;108.53;99.38;;;9.10;99.90;;;;;;5053464;28;20690;-76
2023/11/04 07:23:31;;;;;;;108.93;99.22;;;9.10;99.90;;;;;;5053493;28;20606;-76
2023/11/04 07:25:56;;;;;;;106.03;97.00;;;9.10;99.90;;;;;;5053177;28;20181;-76
2023/11/04 07:28:22;;;;;;;110.43;100.77;;;9.20;99.90;;;;;;5053378;28;20415;-76
2023/11/04 07:30:52;;;;;;;95.33;86.57;;;9.20;99.90;;;;;;5053107;28;20200;-76
2023/11/04 07:33:19;;;;;;;113.07;103.32;;;9.20;99.90;;;;;;5053080;28;20181;-76
2023/11/04 07:35:45;;;;;;;102.47;93.38;;;9.20;99.90;;;;;;5053347;28;20299;-76
2023/11/04 07:38:10;;;;;;;114.60;104.85;;;9.30;99.90;;;;;;5053105;28;20161;-76
2023/11/04 07:40:36;;;;;;;124.80;114.43;;;9.30;99.90;;;;;;5052996;28;20196;-77
2023/11/04 07:43:03;;;;;;;114.03;103.90;;;9.30;99.90;;;;;;5053005;28;20704;-76
2023/11/04 07:45:29;;;;;;;108.93;99.65;;;9.30;99.90;;;;;;5052958;28;20157;-76
2023/11/04 07:47:54;;;;;;;101.37;92.37;;;9.30;99.90;;;;;;5052981;28;20683;-76
2023/11/04 07:50:20;;;;;;;110.33;100.77;;;9.30;99.90;;;;;;5035138;28;20223;-76
2023/11/04 07:52:46;;;;;;;109.70;100.00;;;9.40;99.90;;;;;;5053368;28;20247;-77
2023/11/04 07:55:11;;;;;;;106.90;97.50;;;9.40;99.90;;;;;;5053120;28;20197;-76
2023/11/04 07:57:40;;;;;;;114.03;104.33;;;9.40;99.90;;;;;;5052894;28;20161;-76
2023/11/04 08:00:10;;;;;;;110.72;101.43;;;9.50;99.90;;;;;;5052843;28;20161;-76
2023/11/04 08:02:37;;;;;;;114.43;104.72;;;9.60;99.90;;;;;;5053085;28;20235;-76
2023/11/04 08:05:10;;;;;;;118.07;108.30;;;9.60;99.90;;;;;;5053049;28;20533;-76
2023/11/04 08:07:36;;;;;;;132.98;122.75;;;9.60;99.90;;;;;;5052784;28;20204;-76
2023/11/04 08:10:06;;;;;;;124.50;114.65;;;9.60;99.90;;;;;;5053595;28;20554;-76
2023/11/04 08:12:36;;;;;;;112.30;102.68;;;9.50;99.90;;;;;;5052669;28;20676;-77
2023/11/04 08:15:05;;;;;;;111.32;101.88;;;9.50;99.90;;;;;;5034902;28;20197;-76
2023/11/04 08:17:32;;;;;;;116.95;106.97;;;9.50;99.90;;;;;;5052752;28;20638;-76
2023/11/04 08:19:58;;;;;;;107.30;98.03;;;9.60;99.90;;;;;;5056261;28;20208;-76
2023/11/04 08:22:24;;;;;;;108.85;99.43;;;9.60;99.90;;;;;;5056472;28;20193;-76
2023/11/04 08:24:51;;;;;;;114.67;105.13;;;9.70;99.90;;;;;;5056612;28;20188;-76
2023/11/04 08:27:17;;;;;;;126.78;116.38;;;9.70;99.90;;;;;;5056495;28;20180;-76
2023/11/04 08:29:43;;;;;;;118.60;108.80;;;9.70;99.90;;;;;;5056535;28;20173;-76
2023/11/04 08:32:08;;;;;;;102.00;92.83;;;9.70;99.90;;;;;;5056716;28;20169;-76
2023/11/04 08:34:36;;;;;;;104.10;94.57;;;9.70;99.90;;;;;;5056385;28;20480;-76
2023/11/04 08:37:02;;;;;;;109.15;99.80;;;9.80;99.90;;;;;;5056680;28;20171;-76
2023/11/04 08:39:28;;;;;;;117.30;107.50;;;9.80;99.90;;;;;;5056313;28;20642;-76
2023/11/04 08:41:56;;;;;;;122.40;112.63;;;9.90;99.90;;;;;;5056494;28;20193;-76
2023/11/04 08:44:22;;;;;;;117.30;107.72;;;9.90;99.90;;;;;;5056516;28;20955;-76
2023/11/04 08:46:51;;;;;;;125.30;115.50;;;9.90;99.90;;;;;;5056515;28;20165;-76
2023/11/04 08:49:17;;;;;;;129.98;119.80;;;9.90;99.90;;;;;;5056086;28;20507;-76
2023/11/04 08:51:45;;;;;;;128.13;118.27;;;9.80;99.90;;;;;;5056152;28;20243;-76
2023/11/04 08:54:13;;;;;;;111.68;102.20;;;9.90;99.90;;;;;;5056068;28;20196;-76
2023/11/04 08:56:39;;;;;;;119.47;109.78;;;9.90;99.90;;;;;;5056020;28;20219;-76
2023/11/04 08:59:04;;;;;;;105.13;95.87;;;10.00;99.90;;;;;;5055954;28;20173;-76
2023/11/04 09:01:30;;;;;;;111.27;101.87;;;10.00;99.90;;;;;;5055886;28;20200;-76
2023/11/04 09:03:57;;;;;;;114.43;104.37;;;10.10;99.90;;;;;;5055817;28;20192;-77
2023/11/04 09:06:23;;;;;;;114.55;105.00;;;10.10;99.90;;;;;;5037942;28;20173;-76
2023/11/04 09:08:49;;;;;;;99.17;90.30;;;10.20;99.90;;;;;;5055783;28;20261;-76
2023/11/04 09:11:16;;;;;;;92.65;83.78;;;10.20;99.90;;;;;;5055675;28;20452;-76
2023/11/04 09:13:42;;;;;;;118.53;108.50;;;10.20;99.90;;;;;;5055585;28;20192;-76
2023/11/04 09:16:09;;;;;;;104.95;95.82;;;10.20;99.90;;;;;;5055616;28;20218;-76
2023/11/04 09:18:37;;;;;;;100.50;91.50;;;10.30;99.90;;;;;;5055887;28;20641;-76
2023/11/04 09:21:04;;;;;;;96.93;88.18;;;10.40;99.90;;;;;;5055758;28;20201;-76
2023/11/04 09:23:30;;;;;;;105.15;95.95;;;10.50;99.90;;;;;;5055368;28;20269;-76
2023/11/04 09:25:56;;;;;;;95.90;87.27;;;10.60;99.90;;;;;;5055630;28;20267;-77
2023/11/04 09:28:22;;;;;;;94.80;86.23;;;10.70;99.90;;;;;;5055936;28;20316;-78
2023/11/04 09:30:49;;;;;;;95.13;85.45;;;10.70;99.90;;;;;;5037579;28;20172;-76
2023/11/04 09:33:15;;;;;;;79.32;71.32;;;10.80;99.90;;;;;;5055189;28;20201;-76
2023/11/04 09:35:43;;;;;;;72.13;64.47;;;10.80;99.40;;;;;;5055301;28;20165;-76
2023/11/04 09:38:08;;;;;;;77.57;69.68;;;10.80;98.80;;;;;;5055233;28;20168;-76
2023/11/04 09:40:34;;;;;;;64.20;52.20;;;10.90;97.70;;;;;;5055162;28;20260;-76
2023/11/04 09:43:00;;;;;;;62.53;44.37;;;11.00;93.10;;;;;;5055089;28;20612;-76
2023/11/04 09:45:26;;;;;;;60.97;37.97;;;11.10;91.30;;;;;;5055157;28;20533;-76
2023/11/04 09:47:52;;;;;;;57.78;35.60;;;11.20;90.60;;;;;;5055050;28;20482;-76
2023/11/04 09:50:18;;;;;;;57.50;39.20;;;11.30;76.90;;;;;;5055022;28;20157;-76
2023/11/04 09:52:50;;;;;;;63.30;41.33;;;11.30;69.00;;;;;;5055177;28;20283;-76
2023/11/04 09:55:18;;;;;;;62.88;42.85;;;11.40;74.70;;;;;;5055207;28;20181;-76
2023/11/04 09:57:44;;;;;;;59.67;34.22;;;11.50;61.20;;;;;;5054864;28;20171;-76
2023/11/04 10:00:12;;;;;;;64.35;39.65;;;11.50;53.80;;;;;;5054815;28;20201;-76
2023/11/04 10:02:38;;;;;;;64.07;40.00;;;11.60;56.70;;;;;;5036800;28;20196;-76
2023/11/04 10:05:05;;;;;;;57.20;28.23;;;11.50;48.80;;;;;;5054799;28;20576;-76
2023/11/04 10:07:31;;;;;;;57.83;31.85;;;11.60;48.80;;;;;;5055463;28;20416;-76
2023/11/04 10:09:57;;;;;;;55.90;29.83;;;11.70;47.20;;;;;;5054661;28;20161;-76
2023/11/04 10:12:23;;;;;;;54.97;31.48;;;11.80;47.80;;;;;;5036688;28;20961;-76
2023/11/04 10:14:49;;;;;;;56.40;27.45;;;11.80;41.30;;;;;;5054569;28;20173;-76
2023/11/04 10:17:15;;;;;;;54.07;22.50;;;11.80;38.40;;;;;;5054529;28;20626;-75
2023/11/04 10:19:41;;;;;;;54.70;29.00;;;11.80;39.60;;;;;;5054374;28;20165;-75
2023/11/04 10:22:09;;;;;;;53.57;24.00;;;11.70;34.20;;;;;;5054330;28;20563;-76
2023/11/04 10:24:35;;;;;;;55.63;34.45;;;11.60;41.30;;;;;;5054321;28;20424;-76
2023/11/04 10:27:00;;;;;;;56.35;33.40;;;11.50;39.00;;;;;;5054300;28;20246;-76
2023/11/04 10:29:26;;;;;;;54.77;31.00;;;11.50;41.90;;;;;;5054273;28;20197;-76
2023/11/04 10:31:54;;;;;;;61.27;32.70;;;11.40;41.10;;;;;;5036462;28;20169;-76
2023/11/04 10:34:27;;;;;;;57.08;31.40;;;11.40;44.40;;;;;;5054056;28;20187;-76
2023/11/04 10:36:54;;;;;;;55.25;27.73;;;11.30;44.70;;;;;;5054335;28;20151;-76
2023/11/04 10:39:22;;;;;;;57.28;34.47;;;11.30;44.40;;;;;;5054074;28;20188;-76
2023/11/04 10:42:07;;;;;;;59.72;31.45;;;11.20;50.60;;;;;;5053165;28;20280;-76
2023/11/04 10:44:36;;;;;;;56.60;31.52;;;11.10;55.90;;;;;;5054165;28;20260;-75
2023/11/04 10:47:02;;;;;;;59.92;39.75;;;11.10;63.80;;;;;;5053945;28;20256;-76
2023/11/04 10:49:57;;;;;;;66.15;53.15;;;11.00;70.50;;;;;;5053899;28;20211;-76
2023/11/04 10:52:26;;;;;;;65.38;49.72;;;10.90;77.90;;;;;;5054023;28;20168;-76
2023/11/04 10:55:09;;;;;;;68.78;55.80;;;10.90;87.10;;;;;;5036001;28;20169;-76
2023/11/04 10:57:45;;;;;;;65.20;53.17;;;10.90;90.30;;;;;;5053751;28;20244;-76
2023/11/04 11:00:15;;;;;;;67.38;58.80;;;10.70;91.20;;;;;;5053713;28;20630;-76
2023/11/04 11:02:43;;;;;;;63.17;49.80;;;10.70;93.60;;;;;;5053425;28;20696;-76
2023/11/04 11:05:12;;;;;;;71.00;62.45;;;10.70;96.50;;;;;;5053588;28;20157;-76
2023/11/04 11:07:44;;;;;;;68.38;57.33;;;10.60;99.90;;;;;;5053615;28;20165;-75
2023/11/04 11:10:25;;;;;;;71.65;63.13;;;10.60;99.90;;;;;;5053820;28;20158;-75
2023/11/04 11:13:20;;;;;;;80.10;69.05;;;10.50;99.90;;;;;;5053689;28;20181;-75
2023/11/04 11:15:47;;;;;;;72.75;64.93;;;10.40;99.90;;;;;;5036345;28;20164;-75
2023/11/04 11:18:13;;;;;;;83.65;75.47;;;10.40;99.90;;;;;;5053317;28;20165;-75
2023/11/04 11:20:39;;;;;;;85.70;77.30;;;10.20;99.90;;;;;;5053248;28;20605;-75
2023/11/04 11:23:12;;;;;;;75.28;66.93;;;10.20;99.90;;;;;;5053232;28;20185;-75
2023/11/04 11:25:39;;;;;;;99.05;90.00;;;10.10;99.90;;;;;;5053334;28;20235;-75
2023/11/04 11:28:19;;;;;;;107.80;98.47;;;10.20;99.90;;;;;;5053428;28;20542;-75
2023/11/04 11:30:46;;;;;;;111.00;101.03;;;10.10;99.90;;;;;;5053193;28;20195;-75
2023/11/04 11:33:14;;;;;;;97.63;88.40;;;10.10;99.90;;;;;;5052994;28;20200;-75
2023/11/04 11:35:57;;;;;;;135.52;124.70;;;10.10;99.90;;;;;;5053351;28;20520;-75
2023/11/04 11:38:26;;;;;;;121.55;111.65;;;10.10;99.90;;;;;;5053657;28;20149;-75
2023/11/04 11:40:53;;;;;;;132.43;121.53;;;10.10;99.90;;;;;;5053237;28;20201;-75
2023/11/04 11:43:19;;;;;;;122.18;112.35;;;10.10;99.90;;;;;;5052938;28;20176;-75
2023/11/04 11:45:45;;;;;;;127.65;117.50;;;10.10;99.90;;;;;;5053005;28;20173;-75
2023/11/04 11:48:11;;;;;;;126.32;116.10;;;10.10;99.90;;;;;;5052974;28;20342;-75
2023/11/04 11:50:41;;;;;;;125.83;115.73;;;10.10;99.90;;;;;;5053474;28;20630;-75
2023/11/04 11:53:10;;;;;;;155.63;143.80;;;10.00;99.90;;;;;;5018528;28;20428;-75
2023/11/04 11:59:03;;;;;;;115.57;105.72;;;10.00;99.90;;;;;;5052955;28;20172;-75
2023/11/04 12:01:29;;;;;;;147.23;136.00;;;10.00;99.90;;;;;;5052700;28;20700;-75
2023/11/04 12:03:54;;;;;;;118.13;108.32;;;10.00;99.90;;;;;;5052758;28;20192;-76
2023/11/04 12:06:22;;;;;;;126.80;116.30;;;10.00;99.90;;;;;;5053154;28;20161;-76
2023/11/04 12:08:48;;;;;;;131.77;121.68;;;10.00;99.90;;;;;;5052695;28;20161;-75
2023/11/04 12:11:14;;;;;;;139.03;128.07;;;10.00;99.90;;;;;;5052777;28;20173;-76
2023/11/04 12:13:40;;;;;;;149.20;137.63;;;9.90;99.90;;;;;;5052780;28;20185;-75
2023/11/04 12:16:08;;;;;;;142.85;132.20;;;9.90;99.90;;;;;;5052738;28;20173;-76
2023/11/04 12:18:34;;;;;;;140.07;129.52;;;9.90;99.90;;;;;;5034847;28;20165;-76
2023/11/04 12:20:59;;;;;;;160.73;148.83;;;9.90;99.90;;;;;;5052603;28;20554;-76
2023/11/04 12:23:29;;;;;;;147.17;135.73;;;10.00;99.90;;;;;;5052592;28;20185;-76
2023/11/04 12:25:56;;;;;;;121.05;111.20;;;10.00;99.90;;;;;;5052515;28;20193;-75
2023/11/04 12:28:22;;;;;;;118.18;108.38;;;10.10;99.90;;;;;;5053393;28;20170;-76
2023/11/04 12:31:01;;;;;;;132.00;121.27;;;10.10;99.90;;;;;;5052618;28;20176;-76
2023/11/04 12:33:28;;;;;;;119.15;109.40;;;10.10;99.90;;;;;;5034565;28;20196;-76
2023/11/04 12:36:08;;;;;;;132.80;122.32;;;10.10;99.90;;;;;;5052468;28;20176;-76